Terminal Aerodrome Forecast
Issued by NWS

Home | Current Version | Previous Version | Text Only | Print | Product List | Glossary On
Versions: 1 2 3 4 5 6 7 8 9 10 11 12 13 14 15
841
FTUS43 KLSX 112322
TAFSUS
TAF
KSUS 112322Z 1200/1224 30016G26KT P6SM OVC090
     FM120400 31017G26KT P6SM OVC025
     FM121200 32013G20KT P6SM FEW150
     FM122300 29008KT P6SM FEW250=

USA.gov is the U.S. government's official web portal to all federal, state and local government web resources and services.